This is the latest recevied weather packets stored in our database for station/object NR6G-12. If no packets are shown the sender has not sent any weather packets the latest 10 day(s).
| Time | Temp. | Humidity | Pressure | Rain* | Wind** | Luminosity | Snow |
|---|---|---|---|---|---|---|---|
| 1788559334 | 18.33° C | 63% | 1015.9 hPa | 0 mm | - | - | - |
| 1788558974 | 17.22° C | 66% | 1015.9 hPa | 0 mm | - | - | - |
| 1788558614 | 17.22° C | 65% | 1015.9 hPa | 0 mm | - | - | - |
| 1788558254 | 17.78° C | 63% | 1016 hPa | 0 mm | - | - | - |
| 1788557894 | 18.33° C | 62% | 1015.9 hPa | 0 mm | - | - | - |
| 1788557534 | 17.78° C | 65% | 1016 hPa | 0 mm | - | - | - |
| 1788557174 | 17.22° C | 66% | 1016 hPa | 0 mm | - | - | - |
| 1788556814 | 17.78° C | 62% | 1016.1 hPa | 0 mm | - | - | - |
| 1788556454 | 17.78° C | 65% | 1016 hPa | 0 mm | - | - | - |
| 1788556094 | 17.78° C | 64% | 1016 hPa | 0 mm | - | - | - |
| 1788555734 | 17.22° C | 65% | 1016 hPa | 0 mm | - | - | - |
| 1788555374 | 17.22° C | 65% | 1016 hPa | 0 mm | - | - | - |
| 1788555014 | 17.22° C | 65% | 1016 hPa | 0 mm | - | - | - |
| 1788554654 | 16.67° C | 68% | 1016.1 hPa | 0 mm | - | - | - |
| 1788554294 | 16.11° C | 70% | 1016 hPa | 0 mm | - | - | - |
| 1788553934 | 16.67° C | 68% | 1016 hPa | 0 mm | - | - | - |
| 1788553574 | 17.22° C | 66% | 1016 hPa | 0 mm | - | - | - |
| 1788553214 | 17.22° C | 67% | 1015.9 hPa | 0 mm | - | - | - |
| 1788552854 | 17.22° C | 69% | 1015.9 hPa | 0 mm | - | - | - |
| 1788552494 | 16.67° C | 70% | 1015.9 hPa | 0 mm | - | - | - |
| 1788552134 | 16.67° C | 68% | 1016 hPa | 0 mm | - | - | - |
| 1788551774 | 16.67° C | 69% | 1016 hPa | 0 mm | - | - | - |
| 1788551414 | 16.11° C | 70% | 1016 hPa | 0 mm | - | - | - |
| 1788551054 | 16.11° C | 71% | 1016.1 hPa | 0 mm | - | - | - |
| 1788550694 | 16.11° C | 71% | 1016 hPa | 0 mm | - | - | - |
* Rain latest hour (hover to see other rain measurements)
** Current wind speed in m/s (hover to see current wind gust speed)